Главная страница
METAR-TAF:

METAR-TAF

Аэропорты :

Гран-Канария, Испания

широта: 27-56N, долгота: 015-23W, высота над уровнем моря: 23 м

Текущие метеонаблюдения

Эта сводка был подготовлена 28 минут назад, в 22:00 UTC
Ветер 5 Узел от северно-северо-западный, изменяющийся между западный и северный
Температура 18°C
Влажность 83%
Давление 1025 hPa
Видимость 10 км и более
Нет облачности ниже 1500 м, и нет кучево-дождевой облачности

METAR: GCLP 092200Z 33005KT 280V360 CAVOK 18/15 Q1025 NOSIG

Время: 22:28 (22:28 UTC)

Прогноз

Эта сводка был подготовлена 2 часа и 28 минут назад, в 20:00 UTC
Прогноз действительный с 09-го 21 UTC до 10-го 21 UTC
Ветер 9 Узел от северный
Видимость 10 км и более
небольшая облачность на высоте 1500 фута

TAF: GCLP 092000Z 0921/1021 36009KT 9999 FEW015 TX23/1013Z TN16/1006Z

Метеонаблюдения и прогнозы для более 4000 аэропортов (сводки METAR и TAF).

Имеющиеся станции представлены на карте желтыми и красными точками.

Чтобы увидеть название станции, наведите на нее мышь.

Затем щелкните, чтобы увидеть метеонаблюдения и метеопрогнозы.

Управление картой: чтобы увеличить масштаб, щелкните зеленые кнопки с черным крестиком; чтобы уменьшить масштаб, щелкните зеленую кнопку с тире; для просмотра соседних карт щелкайте зеленые стрелки.


METAR-TAF: